Time;durP1;ratioP1;P1;durP2;ratioP2;P2;SDS_P1;SDS_P2;PMS_P1;PMS_P2;Temp;Humidity;BMP_temperature;BMP_pressure;BME280_temperature;BME280_humidity;BME280_pressure;Samples;Min_cycle;Max_cycle;Signal;HPM_P1;HPM_P2
2023/10/01 00:00:08;;;;;;;10.98;5.10;;;;;;;16.68;73.51;64722.91;5070062;28;20212;-55
2023/10/01 00:02:34;;;;;;;13.25;5.32;;;;;;;16.70;73.83;64722.56;5071483;28;20295;-56
2023/10/01 00:04:59;;;;;;;11.82;5.03;;;;;;;16.54;73.86;64704.94;5071490;28;20338;-55
2023/10/01 00:07:27;;;;;;;7.95;5.05;;;;;;;16.58;73.78;64709.34;5071379;28;20236;-55
2023/10/01 00:09:53;;;;;;;8.88;4.80;;;;;;;16.53;73.21;64705.84;5071396;28;20210;-55
2023/10/01 00:12:19;;;;;;;11.40;5.03;;;;;;;16.61;75.15;64712.66;5071362;28;20205;-61
2023/10/01 00:14:44;;;;;;;8.60;4.60;;;;;;;16.64;76.24;64715.97;5071219;28;20257;-55
2023/10/01 00:17:10;;;;;;;12.25;4.65;;;;;;;16.74;75.31;64732.09;5071455;28;20208;-55
2023/10/01 00:19:38;;;;;;;15.55;5.60;;;;;;;16.82;73.91;64732.16;5053227;28;20716;-54
2023/10/01 00:22:03;;;;;;;7.75;4.70;;;;;;;16.86;73.07;64736.56;5071095;28;20235;-55
2023/10/01 00:24:29;;;;;;;9.50;4.85;;;;;;;16.69;74.28;64718.94;5070818;28;20246;-55
2023/10/01 00:26:54;;;;;;;10.73;4.97;;;;;;;16.41;74.20;64693.19;5071143;28;20706;-55
2023/10/01 00:29:21;;;;;;;5.18;4.25;;;;;;;16.36;76.36;64685.13;5071695;28;20208;-56
2023/10/01 00:31:49;;;;;;;9.57;5.32;;;;;;;16.25;78.24;64672.47;5053396;28;20695;-55
2023/10/01 00:34:16;;;;;;;9.55;4.75;;;;;;;16.33;78.49;64684.38;5071711;28;20210;-55
2023/10/01 00:36:43;;;;;;;11.35;4.80;;;;;;;16.38;76.96;64686.78;5069988;28;20304;-55
2023/10/01 00:39:12;;;;;;;10.60;4.40;;;;;;;16.28;76.13;64678.84;5071099;28;20229;-56
2023/10/01 00:41:37;;;;;;;11.07;4.90;;;;;;;16.21;77.19;64671.16;5069562;28;20224;-55
2023/10/01 00:44:03;;;;;;;11.88;4.95;;;;;;;16.23;76.79;64673.38;5070893;28;20205;-55
2023/10/01 00:46:31;;;;;;;7.15;4.22;;;;;;;16.25;74.95;64675.56;5070747;28;20201;-56
2023/10/01 00:49:00;;;;;;;7.25;4.53;;;;;;;16.14;75.64;64663.44;5071138;28;20259;-54
2023/10/01 00:51:32;;;;;;;8.60;4.03;;;;;;;16.20;74.67;64667.50;5070554;28;20197;-55
2023/10/01 00:54:02;;;;;;;5.97;4.45;;;;;;;16.11;74.70;64657.63;5069414;28;20220;-55
2023/10/01 00:56:29;;;;;;;6.43;4.00;;;;;;;15.99;78.17;64646.94;5058645;22;20268;-55
2023/10/01 00:58:54;;;;;;;9.23;4.45;;;;;;;16.07;78.57;64655.19;5070475;28;20254;-55
2023/10/01 01:01:23;;;;;;;5.57;4.40;;;;;;;16.18;78.22;64665.31;5070620;28;20679;-55
2023/10/01 01:03:55;;;;;;;8.57;4.47;;;;;;;15.90;79.32;64637.03;5070803;28;20233;-55
2023/10/01 01:06:26;;;;;;;10.05;4.63;;;;;;;16.05;77.64;64653.00;5070637;28;20209;-54
2023/10/01 01:08:54;;;;;;;6.20;3.88;;;;;;;16.01;80.45;64648.59;5070487;28;20201;-55
2023/10/01 01:11:21;;;;;;;7.15;4.03;;;;;;;16.01;80.21;64646.59;5070168;28;20217;-55
2023/10/01 01:13:51;;;;;;;4.47;3.95;;;;;;;16.09;79.90;64657.94;5070436;28;20211;-55
2023/10/01 01:16:19;;;;;;;6.53;4.57;;;;;;;16.09;81.33;64657.41;5070617;28;20284;-54
2023/10/01 01:18:51;;;;;;;4.85;4.30;;;;;;;16.04;81.00;64649.91;5070268;28;20208;-55
2023/10/01 01:21:18;;;;;;;7.10;4.30;;;;;;;16.02;81.34;64647.69;5070306;28;20263;-54
2023/10/01 01:23:50;;;;;;;5.75;4.22;;;;;;;15.97;82.76;64644.75;5068872;28;20177;-55
2023/10/01 01:26:21;;;;;;;13.02;5.35;;;;;;;16.00;81.88;64644.97;5070315;28;20211;-54
2023/10/01 01:28:47;;;;;;;7.40;4.05;;;;;;;16.18;79.60;64667.31;5070507;28;20199;-55
2023/10/01 01:31:13;;;;;;;6.45;4.47;;;;;;;16.19;80.24;64668.41;5068895;28;20208;-54
2023/10/01 01:33:44;;;;;;;12.07;5.25;;;;;;;15.96;80.67;64641.66;5070210;28;20200;-55
2023/10/01 01:36:12;;;;;;;8.13;5.15;;;;;;;15.88;79.62;64635.38;5071457;28;20685;-55
2023/10/01 01:39:12;;;;;;;10.20;4.88;;;;;;;16.00;78.10;64647.50;5073730;28;20242;-56
2023/10/01 01:41:48;;;;;;;9.23;4.75;;;;;;;15.93;76.98;64640.34;5073985;28;20230;-54
2023/10/01 01:44:15;;;;;;;7.78;4.28;;;;;;;15.64;78.02;64603.34;5073504;28;20200;-55
2023/10/01 01:46:59;;;;;;;9.25;4.47;;;;;;;15.55;78.48;64599.09;5072097;28;20265;-54
2023/10/01 01:49:25;;;;;;;12.23;5.10;;;;;;;15.44;78.79;64584.44;5072528;28;20219;-55
2023/10/01 01:51:57;;;;;;;8.48;4.72;;;;;;;15.46;78.53;64586.66;5073834;28;20265;-54
2023/10/01 01:54:31;;;;;;;10.07;4.88;;;;;;;15.38;78.93;64580.38;5072420;28;20274;-54
2023/10/01 01:56:57;;;;;;;7.88;5.15;;;;;;;15.28;80.81;64568.81;5073862;28;20207;-56
2023/10/01 01:59:31;;;;;;;7.35;4.75;;;;;;;15.32;79.97;64573.22;5073517;28;20365;-56
2023/10/01 02:01:57;;;;;;;8.60;4.78;;;;;;;15.22;80.76;64559.69;5073373;28;20212;-55
2023/10/01 02:04:24;;;;;;;7.35;4.40;;;;;;;15.35;80.12;64576.53;5073499;28;20227;-55
2023/10/01 02:06:54;;;;;;;6.00;4.30;;;;;;;15.30;80.19;64568.47;5073455;28;20221;-56
2023/10/01 02:09:20;;;;;;;8.52;4.88;;;;;;;15.11;80.83;64550.66;5073199;28;20219;-56
2023/10/01 02:11:52;;;;;;;8.50;4.38;;;;;;;15.16;79.53;64553.63;5073128;28;20721;-55
2023/10/01 02:14:30;;;;;;;4.75;4.10;;;;;;;15.02;80.79;64538.78;5073353;28;20212;-55
2023/10/01 02:17:13;;;;;;;7.22;4.30;;;;;;;14.98;81.85;64536.94;5072105;28;20229;-56
2023/10/01 02:19:40;;;;;;;14.05;4.20;;;;;;;15.05;80.98;64544.63;5073245;28;20307;-55
2023/10/01 02:22:09;;;;;;;6.30;4.70;;;;;;;15.03;81.23;64544.97;5073294;28;20207;-55
2023/10/01 02:24:38;;;;;;;9.20;4.47;;;;;;;14.97;82.46;64535.28;5073362;28;20212;-55
2023/10/01 02:27:04;;;;;;;7.07;4.40;;;;;;;14.73;84.29;64508.88;5073278;28;20201;-56
2023/10/01 02:29:32;;;;;;;8.75;4.10;;;;;;;14.62;85.79;64494.28;5071795;28;20722;-56
2023/10/01 02:32:04;;;;;;;10.32;4.15;;;;;;;14.71;84.96;64507.25;5073045;28;20197;-55
2023/10/01 02:34:31;;;;;;;8.68;5.13;;;;;;;14.83;83.00;64520.44;5072996;28;20664;-55
2023/10/01 02:36:58;;;;;;;5.88;4.45;;;;;;;14.68;84.55;64500.88;5073066;28;20733;-56
2023/10/01 02:39:29;;;;;;;13.07;5.60;;;;;;;14.69;83.81;64502.50;5071600;28;20287;-56
2023/10/01 02:44:39;;;;;;;7.03;4.90;;;;;;;14.57;85.67;64491.88;5072711;28;20200;-55
2023/10/01 02:47:16;;;;;;;6.00;4.43;;;;;;;14.48;87.35;64481.44;5070944;28;20213;-56
2023/10/01 02:49:49;;;;;;;6.75;4.60;;;;;;;14.50;88.14;64486.72;5071259;28;20216;-55
2023/10/01 02:52:23;;;;;;;9.35;5.03;;;;;;;14.57;86.99;64488.78;5073241;28;20269;-56
2023/10/01 02:54:59;;;;;;;7.07;4.40;;;;;;;14.66;86.81;64501.75;5072633;28;20608;-56
2023/10/01 02:57:26;;;;;;;8.25;4.45;;;;;;;14.79;86.44;64515.50;5072438;28;20295;-55
2023/10/01 03:00:20;;;;;;;9.05;4.22;;;;;;;14.92;84.95;64532.31;5072440;28;20304;-54
2023/10/01 03:02:51;;;;;;;8.15;4.75;;;;;;;14.92;85.57;64530.34;5073051;28;20655;-55
2023/10/01 03:05:53;;;;;;;7.43;4.43;;;;;;;14.97;85.09;64535.81;5072535;28;20207;-55
2023/10/01 03:08:25;;;;;;;9.95;5.38;;;;;;;15.03;83.84;64537.34;5070047;28;20738;-56
2023/10/01 03:10:52;;;;;;;10.30;5.43;;;;;;;14.83;84.96;64520.44;5072500;28;20193;-57
2023/10/01 03:13:20;;;;;;;10.00;5.32;;;;;;;14.76;84.93;64510.22;5071185;28;20254;-58
2023/10/01 03:16:39;;;;;;;22.00;5.97;;;;;;;14.69;85.53;64504.50;5070110;28;20197;-56
2023/10/01 03:18:34;;;;;;;7.43;5.18;;;;;;;14.65;84.90;64500.09;5072179;28;20556;-55
2023/10/01 03:21:07;;;;;;;10.10;5.43;;;;;;;14.60;85.89;64495.16;5071873;28;20217;-56
2023/10/01 03:23:33;;;;;;;8.10;4.70;;;;;;;14.71;84.51;64506.69;5071990;28;20201;-55
2023/10/01 03:26:03;;;;;;;7.05;4.63;;;;;;;14.66;86.48;64501.75;5071607;28;20236;-58
2023/10/01 03:29:13;;;;;;;8.50;5.07;;;;;;;14.69;86.18;64505.06;5070856;28;20212;-56
2023/10/01 03:31:20;;;;;;;7.45;4.65;;;;;;;14.88;84.82;64525.38;5072151;28;20277;-56
2023/10/01 03:33:47;;;;;;;14.20;5.03;;;;;;;14.77;85.70;64513.84;5072055;28;20199;-54
2023/10/01 03:36:16;;;;;;;7.50;4.90;;;;;;;14.83;85.47;64517.34;5072013;28;20200;-55
2023/10/01 03:38:43;;;;;;;8.32;4.32;;;;;;;14.86;85.51;64521.22;5072129;28;20272;-56
2023/10/01 03:41:20;;;;;;;9.07;5.43;;;;;;;14.80;84.66;64517.16;5072231;28;20216;-56
2023/10/01 03:43:47;;;;;;;8.15;5.32;;;;;;;14.68;86.59;64500.88;5072003;28;20207;-56
2023/10/01 03:46:15;;;;;;;7.20;4.47;;;;;;;14.58;86.66;64492.97;5071769;28;20257;-55
2023/10/01 03:57:11;;;;;;;7.88;4.78;;;;;;;14.80;85.03;64517.16;5071852;28;20219;-55
2023/10/01 03:59:38;;;;;;;4.85;4.30;;;;;;;14.78;84.29;64512.41;5053287;28;20216;-56
2023/10/01 04:02:26;;;;;;;8.30;4.53;;;;;;;14.82;83.79;64519.34;5071793;28;20249;-54
2023/10/01 04:04:58;;;;;;;7.28;5.03;;;;;;;14.64;85.42;64502.09;5071465;28;20797;-56
2023/10/01 04:07:42;;;;;;;7.70;4.72;;;;;;;14.61;85.20;64496.25;5071415;28;20216;-57
2023/10/01 04:10:14;;;;;;;9.85;4.75;;;;;;;14.68;86.02;64503.97;5070407;28;20203;-56
2023/10/01 04:13:27;;;;;;;11.75;5.22;;;;;;;14.75;85.07;64511.66;5071477;28;20270;-55
2023/10/01 04:15:32;;;;;;;11.07;4.93;;;;;;;14.64;84.75;64499.56;5063038;28;20201;-59
2023/10/01 04:20:49;;;;;;;10.57;5.13;;;;;;;14.67;84.80;64500.31;5071151;28;20228;-56
2023/10/01 04:23:29;;;;;;;13.60;5.28;;;;;;;14.70;84.40;64503.63;5071236;28;20212;-56
2023/10/01 04:25:56;;;;;;;8.40;5.72;;;;;;;14.68;85.32;64503.97;5070146;28;20192;-54
2023/10/01 04:28:23;;;;;;;10.15;5.35;;;;;;;14.73;85.58;64506.91;5069834;28;20270;-55
2023/10/01 04:30:52;;;;;;;9.63;5.45;;;;;;;14.69;86.09;64504.50;5071109;28;20204;-55
2023/10/01 04:33:23;;;;;;;14.63;6.10;;;;;;;14.66;85.53;64499.22;5070077;28;20249;-54
2023/10/01 04:35:56;;;;;;;14.40;6.30;;;;;;;14.62;85.85;64494.84;5071030;28;20204;-54
2023/10/01 04:38:35;;;;;;;9.88;5.75;;;;;;;14.67;85.93;64505.38;5084636;22;20286;-54
2023/10/01 04:41:07;;;;;;;11.52;5.70;;;;;;;14.75;85.68;64508.56;5069290;28;20216;-55
2023/10/01 04:43:41;;;;;;;11.75;5.95;;;;;;;14.86;85.18;64523.19;5070074;28;20710;-54
2023/10/01 04:46:10;;;;;;;12.52;6.55;;;;;;;14.81;85.57;64517.69;5069721;28;20227;-54
2023/10/01 04:48:39;;;;;;;7.85;6.10;;;;;;;14.67;86.21;64500.31;5070898;28;20287;-54
2023/10/01 04:53:31;;;;;;;12.82;6.00;;;;;;;14.64;86.14;64499.56;5082094;22;20228;-55
2023/10/01 04:56:00;;;;;;;11.05;6.10;;;;;;;14.64;87.02;64497.03;5070449;28;20265;-55
2023/10/01 04:58:38;;;;;;;11.55;5.93;;;;;;;14.70;87.74;64503.63;5070906;28;20200;-55
2023/10/01 05:01:10;;;;;;;9.85;6.15;;;;;;;14.87;87.31;64522.28;5070617;28;20589;-55
2023/10/01 05:03:39;;;;;;;10.73;5.60;;;;;;;15.02;86.23;64543.31;5070620;28;20196;-55
2023/10/01 05:06:11;;;;;;;12.70;6.45;;;;;;;14.86;86.97;64518.66;5053073;28;20205;-55
2023/10/01 05:08:40;;;;;;;8.73;5.45;;;;;;;15.04;86.08;64541.00;5070435;28;20781;-53
2023/10/01 05:11:11;;;;;;;13.20;5.63;;;;;;;15.17;84.82;64554.72;5068383;28;20241;-55
2023/10/01 05:13:47;;;;;;;14.27;5.82;;;;;;;15.22;85.29;64562.22;5069483;28;20204;-55
2023/10/01 05:16:14;;;;;;;9.57;6.05;;;;;;;15.39;83.90;64580.91;5070252;28;20239;-55
2023/10/01 05:18:42;;;;;;;16.13;7.45;;;;;;;15.40;82.26;64579.47;5068143;28;20185;-55
2023/10/01 05:21:12;;;;;;;11.25;7.60;;;;;;;15.12;83.73;64551.78;5070271;28;20217;-55
2023/10/01 05:23:41;;;;;;;14.65;6.93;;;;;;;15.01;86.53;64537.69;5070293;28;20310;-56
2023/10/01 05:26:08;;;;;;;15.85;7.45;;;;;;;15.13;84.83;64553.41;5070605;28;20228;-55
2023/10/01 05:28:41;;;;;;;16.80;7.70;;;;;;;15.25;84.60;64565.53;5070242;28;20196;-57
2023/10/01 05:31:08;;;;;;;14.63;7.95;;;;;;;15.17;84.59;64557.25;5070339;28;20212;-55
2023/10/01 05:33:35;;;;;;;18.75;8.70;;;;;;;15.04;85.50;64543.53;5070239;28;20257;-52
2023/10/01 05:36:04;;;;;;;12.05;8.38;;;;;;;14.97;85.63;64533.28;5068950;28;20288;-51
2023/10/01 05:38:34;;;;;;;18.13;9.75;;;;;;;14.75;86.71;64508.56;5070179;28;20235;-52
2023/10/01 05:41:04;;;;;;;13.63;7.85;;;;;;;14.68;86.74;64503.41;5069700;28;20228;-52
2023/10/01 05:43:35;;;;;;;15.25;7.80;;;;;;;14.49;87.99;64482.50;5069195;28;20284;-53
2023/10/01 05:46:01;;;;;;;15.40;7.43;;;;;;;14.41;88.36;64473.72;5070268;28;20196;-54
2023/10/01 05:48:32;;;;;;;11.27;7.07;;;;;;;14.32;88.99;64464.94;5070194;28;20193;-53
2023/10/01 05:50:58;;;;;;;19.33;8.13;;;;;;;14.27;89.71;64459.44;5068731;28;20209;-53
2023/10/01 05:53:24;;;;;;;11.25;7.07;;;;;;;14.41;89.80;64471.75;5070124;28;20200;-52
2023/10/01 05:55:50;;;;;;;13.35;7.60;;;;;;;14.53;89.20;64484.94;5070247;28;20219;-53
2023/10/01 05:58:16;;;;;;;13.13;6.90;;;;;;;14.69;89.91;64504.50;5069894;28;20590;-52
2023/10/01 06:01:05;;;;;;;10.70;7.03;;;;;;;14.82;87.31;64521.88;5069868;28;20224;-51
2023/10/01 06:03:32;;;;;;;14.07;7.00;;;;;;;15.04;87.37;64546.06;5069913;28;20201;-52
2023/10/01 06:05:58;;;;;;;7.40;5.90;;;;;;;15.22;86.28;64562.22;5070056;28;20227;-52
2023/10/01 06:08:44;;;;;;;10.95;6.97;;;;;;;15.30;86.14;64569.03;5069890;28;20294;-58
2023/10/01 06:11:15;;;;;;;9.77;5.55;;;;;;;15.41;83.72;64580.56;5070071;28;20265;-53
2023/10/01 06:13:51;;;;;;;9.52;5.68;;;;;;;15.43;84.02;64585.88;5068494;28;20212;-55
2023/10/01 06:16:25;;;;;;;7.15;5.18;;;;;;;15.58;83.21;64602.38;5070082;28;20208;-54
2023/10/01 06:18:59;;;;;;;9.93;5.47;;;;;;;15.69;82.47;64614.50;5069729;28;20200;-55
2023/10/01 06:21:31;;;;;;;9.13;6.43;;;;;;;15.74;81.62;64619.44;5069957;28;20217;-56
2023/10/01 06:24:04;;;;;;;7.13;5.43;;;;;;;15.83;80.45;64629.34;5072086;28;20256;-56
2023/10/01 06:26:42;;;;;;;10.43;5.63;;;;;;;16.18;87.48;64665.31;5072984;28;20761;-54
2023/10/01 06:29:10;;;;;;;10.40;5.50;;;;;;;16.08;80.22;64654.31;5072000;28;20212;-56
2023/10/01 06:34:39;;;;;;;10.73;5.97;;;;;;;16.18;79.92;64665.31;5049826;28;20255;-56
2023/10/01 06:37:05;;;;;;;11.80;6.22;;;;;;;16.28;79.70;64678.84;5071655;28;20232;-55
2023/10/01 06:39:35;;;;;;;13.45;6.53;;;;;;;16.36;79.00;64685.13;5072993;28;20213;-54
2023/10/01 06:42:20;;;;;;;9.00;6.00;;;;;;;16.29;79.22;64679.41;5071585;28;20251;-55
2023/10/01 06:44:52;;;;;;;11.18;6.70;;;;;;;16.54;78.73;64706.97;5072006;28;20745;-55
2023/10/01 06:47:22;;;;;;;10.38;6.80;;;;;;;16.68;78.67;64719.84;5071371;28;20619;-55
2023/10/01 06:52:34;;;;;;;9.40;6.38;;;;;;;16.96;78.24;64750.13;5073058;28;20303;-56
2023/10/01 06:55:03;;;;;;;10.98;7.50;;;;;;;16.90;77.95;64740.97;5072611;28;20697;-55
2023/10/01 06:57:33;;;;;;;11.30;6.50;;;;;;;17.01;78.10;64755.63;5072545;28;20208;-55
2023/10/01 07:00:12;;;;;;;11.32;6.72;;;;;;;17.08;78.33;64765.88;5072766;28;20224;-54
2023/10/01 07:02:39;;;;;;;10.88;6.72;;;;;;;17.04;78.77;64762.03;5071171;28;20295;-54
2023/10/01 07:05:05;;;;;;;14.00;7.55;;;;;;;17.16;78.92;64772.16;5072478;28;20212;-54
2023/10/01 07:07:30;;;;;;;12.10;7.43;;;;;;;17.33;78.43;64793.97;5071208;28;20212;-55
2023/10/01 07:09:56;;;;;;;9.65;7.15;;;;;;;17.28;79.00;64787.91;5071807;28;20201;-54
2023/10/01 07:12:23;;;;;;;13.98;6.78;;;;;;;17.49;79.25;64811.63;5072359;28;20670;-56
2023/10/01 07:14:53;;;;;;;8.98;6.25;;;;;;;17.56;79.28;64816.78;5072349;28;20205;-55
2023/10/01 07:17:24;;;;;;;12.80;7.18;;;;;;;17.71;78.91;64832.78;5072330;28;20204;-55
2023/10/01 07:20:18;;;;;;;9.90;7.13;;;;;;;17.77;79.27;64841.38;5072420;28;20208;-55
2023/10/01 07:22:44;;;;;;;12.38;8.05;;;;;;;17.64;79.87;64827.59;5072249;28;20208;-54
2023/10/01 07:25:28;;;;;;;12.15;7.82;;;;;;;17.67;80.40;64830.91;5072175;28;20208;-57
2023/10/01 07:27:57;;;;;;;15.23;7.68;;;;;;;17.79;80.17;64841.59;5070740;28;20285;-55
2023/10/01 07:30:39;;;;;;;16.50;7.45;;;;;;;17.89;80.01;64855.19;5072527;28;20209;-55
2023/10/01 07:33:05;;;;;;;12.50;7.53;;;;;;;17.88;80.07;64848.97;5069687;28;20208;-55
2023/10/01 07:35:33;;;;;;;12.55;7.45;;;;;;;17.91;80.05;64854.81;5072147;28;20208;-54
2023/10/01 07:37:59;;;;;;;12.27;7.85;;;;;;;18.08;80.14;64873.56;5071931;28;20307;-55
2023/10/01 07:40:24;;;;;;;12.45;8.18;;;;;;;18.09;79.88;64871.56;5071127;28;20805;-55
2023/10/01 07:42:54;;;;;;;12.13;8.77;;;;;;;18.01;80.05;64867.84;5071915;28;20219;-54
2023/10/01 07:45:21;;;;;;;12.05;7.70;;;;;;;18.09;79.28;64872.13;5072579;28;20284;-55
2023/10/01 07:47:48;;;;;;;15.00;8.40;;;;;;;17.94;80.82;64855.56;5071843;28;20212;-55
2023/10/01 07:50:16;;;;;;;11.13;8.27;;;;;;;18.10;80.88;64878.31;5072222;28;20200;-55
2023/10/01 07:52:43;;;;;;;15.73;8.48;;;;;;;18.23;80.89;64890.13;5071792;28;20212;-53
2023/10/01 07:55:30;;;;;;;14.02;9.43;;;;;;;18.27;79.99;64894.53;5070483;28;20197;-54
2023/10/01 08:00:44;;;;;;;14.07;8.85;;;;;;;18.57;79.09;64926.53;5070867;28;20224;-53
2023/10/01 08:05:50;;;;;;;13.63;7.82;;;;;;;18.72;78.21;64941.09;5071382;28;20292;-57
2023/10/01 08:08:35;;;;;;;15.20;8.32;;;;;;;18.94;77.72;64964.78;5070907;28;20409;-56
2023/10/01 08:11:37;;;;;;;19.58;9.10;;;;;;;19.22;75.62;64998.25;5071537;28;20200;-55
2023/10/01 08:13:55;;;;;;;13.02;8.40;;;;;;;19.25;75.58;65001.56;5070231;28;20224;-58
2023/10/01 08:16:23;;;;;;;18.10;9.07;;;;;;;19.26;76.23;65003.22;5070129;28;20216;-58
2023/10/01 08:18:57;;;;;;;13.07;8.98;;;;;;;19.34;75.31;65011.53;5071777;28;20204;-56
2023/10/01 08:21:36;;;;;;;12.63;8.80;;;;;;;19.64;75.34;65044.66;5069516;28;20779;-55
2023/10/01 08:24:13;;;;;;;15.52;8.85;;;;;;;19.90;73.30;65072.78;5071417;28;20235;-55
2023/10/01 08:26:57;;;;;;;15.02;9.68;;;;;;;19.77;73.60;65056.44;5071308;28;20242;-56
2023/10/01 08:29:27;;;;;;;15.18;9.63;;;;;;;19.80;73.99;65061.75;5070428;28;20208;-56
2023/10/01 08:34:22;;;;;;;17.38;9.63;;;;;;;20.01;72.79;65080.41;5071271;28;20262;-55
2023/10/01 08:36:58;;;;;;;13.32;9.00;;;;;;;20.09;72.60;65094.34;5069320;28;20302;-55
2023/10/01 08:39:34;;;;;;;15.82;9.93;;;;;;;20.25;73.13;65108.94;5071461;28;20212;-55
2023/10/01 08:42:11;;;;;;;12.80;9.13;;;;;;;20.41;71.87;65128.63;5071213;28;20706;-53
2023/10/01 08:44:45;;;;;;;20.17;10.35;;;;;;;20.69;71.09;65157.00;5071227;28;20212;-53
2023/10/01 08:47:21;;;;;;;17.13;8.77;;;;;;;20.77;70.06;65168.41;5071068;28;20197;-53
2023/10/01 08:49:51;;;;;;;15.23;9.77;;;;;;;21.04;69.38;65195.16;5071205;28;20291;-53
2023/10/01 08:52:25;;;;;;;18.48;9.98;;;;;;;21.19;68.46;65214.84;5071044;28;20354;-53
2023/10/01 08:54:59;;;;;;;16.08;9.40;;;;;;;21.15;67.68;65210.44;5053605;28;20208;-53
2023/10/01 08:57:45;;;;;;;17.55;9.15;;;;;;;21.28;68.02;65224.81;5070902;28;20244;-54
2023/10/01 09:00:23;;;;;;;15.02;9.00;;;;;;;21.68;66.34;65265.94;5070829;28;20209;-54
2023/10/01 09:02:53;;;;;;;13.45;8.98;;;;;;;21.76;65.49;65277.34;5069107;28;20227;-53
2023/10/01 09:05:26;;;;;;;15.80;9.52;;;;;;;21.72;64.25;65270.91;5070946;28;20208;-54
2023/10/01 09:10:51;;;;;;;19.98;9.27;;;;;;;21.65;63.98;65262.63;5070937;28;20211;-53
2023/10/01 09:13:21;;;;;;;14.57;8.55;;;;;;;21.53;63.36;65252.47;5069465;28;20204;-53
2023/10/01 09:15:56;;;;;;;11.60;8.25;;;;;;;21.66;62.33;65264.28;5070634;28;20204;-52
2023/10/01 09:18:23;;;;;;;13.55;8.38;;;;;;;21.87;61.79;65286.44;5070707;28;20264;-54
2023/10/01 09:21:08;;;;;;;15.13;8.80;;;;;;;22.06;61.79;65307.47;5070258;28;20763;-52
2023/10/01 09:24:31;;;;;;;16.60;9.10;;;;;;;22.07;62.36;65311.13;5067781;28;20211;-52
2023/10/01 09:26:56;;;;;;;16.73;8.40;;;;;;;22.32;60.63;65336.78;5070060;28;20220;-52
2023/10/01 09:29:23;;;;;;;11.60;7.43;;;;;;;22.81;60.14;65393.06;5069367;28;20208;-54
2023/10/01 09:31:56;;;;;;;15.23;8.25;;;;;;;23.28;59.10;65442.56;5070550;28;20216;-53
2023/10/01 09:34:36;;;;;;;27.08;18.85;;;;;;;23.23;57.87;65436.47;5070345;28;20283;-58
2023/10/01 09:37:12;;;;;;;16.48;8.90;;;;;;;23.01;56.57;65412.66;5070094;28;20208;-53
2023/10/01 09:39:41;;;;;;;16.08;7.70;;;;;;;23.01;56.29;65415.22;5070228;28;20204;-52
2023/10/01 09:42:22;;;;;;;13.48;10.02;;;;;;;23.01;55.57;65412.66;5068878;28;20200;-52
2023/10/01 09:44:55;;;;;;;14.27;7.65;;;;;;;23.93;54.65;65514.06;5068928;28;20346;-54
2023/10/01 09:47:27;;;;;;;15.75;10.52;;;;;;;23.96;52.48;65516.81;5070089;28;20209;-52
2023/10/01 09:49:54;;;;;;;13.45;7.10;;;;;;;23.22;52.28;65435.91;5068861;28;20209;-53
2023/10/01 09:52:30;;;;;;;13.25;7.82;;;;;;;23.22;51.65;65430.22;5068605;28;20209;-52
2023/10/01 09:55:07;;;;;;;13.85;8.30;;;;;;;23.36;52.36;65448.31;5068933;28;20346;-57
2023/10/01 09:57:37;;;;;;;13.95;8.55;;;;;;;24.04;53.25;65525.72;5073005;28;20205;-55
2023/10/01 10:00:21;;;;;;;15.20;9.50;;;;;;;23.65;50.88;65483.03;5073780;28;20266;-61
2023/10/01 10:02:52;;;;;;;17.08;8.27;;;;;;;23.43;51.75;65458.66;5073668;28;20201;-53
2023/10/01 10:05:26;;;;;;;17.98;10.43;;;;;;;23.40;48.48;65455.31;5072330;28;20197;-53
2023/10/01 10:07:53;;;;;;;17.48;9.60;;;;;;;23.48;49.22;65464.19;5073510;28;20265;-54
2023/10/01 10:10:24;;;;;;;12.48;8.13;;;;;;;23.38;49.88;65452.56;5073749;28;20205;-54
2023/10/01 10:12:56;;;;;;;14.02;8.73;;;;;;;23.33;49.12;65448.13;5073632;28;20231;-53
2023/10/01 10:15:57;;;;;;;18.58;9.80;;;;;;;24.00;48.60;65521.25;5072736;28;20270;-54
2023/10/01 10:18:32;;;;;;;14.48;9.00;;;;;;;24.24;47.44;65549.94;5073379;28;20227;-55
2023/10/01 10:21:05;;;;;;;16.05;8.52;;;;;;;24.14;47.50;65537.38;5073290;28;20220;-55
2023/10/01 10:23:55;;;;;;;14.38;8.63;;;;;;;23.87;47.86;65501.72;5073284;28;20204;-52
2023/10/01 10:27:00;;;;;;;14.45;9.43;;;;;;;24.90;46.73;65621.13;5073208;28;20232;-53
2023/10/01 10:30:01;;;;;;;10.73;7.82;;;;;;;24.60;43.33;65587.84;5073502;28;20213;-54
2023/10/01 10:32:30;;;;;;;14.20;7.82;;;;;;;24.52;45.17;65578.41;5071547;28;20597;-52
2023/10/01 10:35:05;;;;;;;11.90;7.60;;;;;;;24.74;45.23;65603.38;5071551;28;20205;-53
2023/10/01 10:37:36;;;;;;;11.00;7.10;;;;;;;24.64;44.71;65589.69;5072830;28;20720;-51
2023/10/01 10:40:04;;;;;;;12.13;7.38;;;;;;;24.38;45.01;65560.84;5072773;28;20228;-52
2023/10/01 10:42:34;;;;;;;8.65;7.28;;;;;;;24.69;44.82;65595.22;5072482;28;20291;-52
2023/10/01 10:45:22;;;;;;;10.75;6.82;;;;;;;24.60;44.66;65587.28;5071451;28;20290;-54
2023/10/01 10:48:03;;;;;;;11.00;6.80;;;;;;;25.65;45.50;65700.69;5072752;28;20686;-53
2023/10/01 10:50:50;;;;;;;11.23;7.22;;;;;;;26.42;42.75;65786.22;5072559;28;20209;-53
2023/10/01 10:53:25;;;;;;;10.15;6.80;;;;;;;26.86;42.87;65834.59;5072743;28;20244;-52
2023/10/01 10:56:06;;;;;;;12.48;7.57;;;;;;;26.10;41.67;65750.13;5073012;28;20200;-53
2023/10/01 11:01:15;;;;;;;13.25;7.47;;;;;;;24.20;46.13;65542.91;5077911;22;20228;-52
2023/10/01 11:03:57;;;;;;;13.18;8.30;;;;;;;24.08;46.73;65532.72;5072530;28;20612;-53
2023/10/01 11:06:43;;;;;;;11.52;7.65;;;;;;;24.30;46.34;65554.53;5070918;28;20213;-52
2023/10/01 11:09:30;;;;;;;12.75;7.18;;;;;;;25.01;45.77;65632.22;5072542;28;20301;-52
2023/10/01 11:12:18;;;;;;;12.18;8.13;;;;;;;25.64;44.49;65702.72;5072229;28;20201;-53
2023/10/01 11:15:19;;;;;;;13.73;7.32;;;;;;;25.27;44.41;65658.50;5070936;28;20205;-52
2023/10/01 11:17:57;;;;;;;11.45;7.53;;;;;;;25.02;45.02;65630.75;5072478;28;20217;-58
2023/10/01 11:20:24;;;;;;;8.02;6.65;;;;;;;24.57;45.42;65583.94;5070827;28;20308;-53
2023/10/01 11:22:54;;;;;;;14.23;7.93;;;;;;;24.01;46.56;65522.38;5072093;28;20224;-54
2023/10/01 11:25:21;;;;;;;10.85;7.15;;;;;;;24.45;46.96;65570.63;5072446;28;20193;-52
2023/10/01 11:28:06;;;;;;;13.65;9.00;;;;;;;24.36;47.39;65561.19;5072016;28;20208;-53
2023/10/01 11:30:43;;;;;;;13.30;8.88;;;;;;;24.41;47.41;65566.75;5071873;28;20200;-55
2023/10/01 11:33:29;;;;;;;12.63;7.90;;;;;;;24.63;46.59;65593.16;5069874;28;20322;-53
2023/10/01 11:36:07;;;;;;;14.43;9.27;;;;;;;24.71;45.94;65600.03;5071751;28;20768;-54
2023/10/01 11:38:35;;;;;;;13.82;8.65;;;;;;;24.69;47.34;65595.22;5071831;28;20224;-52
2023/10/01 11:41:09;;;;;;;18.48;10.77;;;;;;;24.54;48.88;65581.19;5071724;28;20217;-52
2023/10/01 11:43:59;;;;;;;16.10;9.13;;;;;;;24.11;49.42;65533.50;5072041;28;20193;-52
2023/10/01 11:49:34;;;;;;;13.80;8.27;;;;;;;23.56;50.44;65472.50;5071887;28;20207;-52
2023/10/01 11:52:21;;;;;;;14.10;8.40;;;;;;;23.05;52.36;65413.94;5071525;28;20212;-51
2023/10/01 11:54:53;;;;;;;14.68;8.07;;;;;;;22.72;53.37;65380.53;5070361;28;20559;-51
2023/10/01 11:57:23;;;;;;;14.98;8.25;;;;;;;22.65;54.23;65374.78;5071440;28;20219;-54
2023/10/01 11:59:56;;;;;;;11.15;7.97;;;;;;;22.61;54.41;65372.94;5071704;28;20220;-55
2023/10/01 12:02:33;;;;;;;10.95;7.68;;;;;;;23.08;53.95;65420.41;5070143;28;20221;-55
2023/10/01 12:05:07;;;;;;;13.80;7.57;;;;;;;23.77;51.88;65493.75;5071480;28;20200;-57
2023/10/01 12:07:42;;;;;;;10.45;7.53;;;;;;;24.42;49.90;65567.31;5071573;28;20212;-56
2023/10/01 12:10:31;;;;;;;13.15;7.85;;;;;;;24.75;47.85;65604.47;5071101;28;20307;-59
2023/10/01 12:12:56;;;;;;;15.00;7.07;;;;;;;24.83;46.30;65613.34;5068930;28;20212;-56
2023/10/01 12:15:35;;;;;;;11.40;7.38;;;;;;;24.98;46.42;65632.59;5071791;28;20203;-55
2023/10/01 12:18:13;;;;;;;14.65;8.07;;;;;;;24.84;46.83;65614.47;5071186;28;20208;-56
2023/10/01 12:20:51;;;;;;;14.48;8.15;;;;;;;25.32;46.06;65666.63;5069618;28;20208;-55
2023/10/01 12:23:22;;;;;;;13.27;7.13;;;;;;;24.57;47.36;65584.50;5069638;28;20219;-56
2023/10/01 12:28:19;;;;;;;12.10;7.78;;;;;;;24.46;46.95;65572.28;5070977;28;20292;-56
2023/10/01 12:30:56;;;;;;;10.45;6.75;;;;;;;24.62;47.06;65587.47;5071075;28;20230;-55
2023/10/01 12:33:38;;;;;;;16.42;7.72;;;;;;;24.95;46.55;65629.25;5071122;28;20216;-54